<?xml version="1.0" encoding="UTF-8" standalone="no" ?><gpx xmlns="http://www.topografix.com/GPX/1/1" xmlns:gpxx="http://www.garmin.com/xmlschemas/GpxExtensions/v3" xmlns:gpxtpx="http://www.garmin.com/xmlschemas/TrackPointExtension/v1" creator="Foretrex 301" version="1.1" xmlns:xsi="http://www.w3.org/2001/XMLSchema-instance" xsi:schemaLocation="http://www.topografix.com/GPX/1/1 http://www.topografix.com/GPX/1/1/gpx.xsd http://www.garmin.com/xmlschemas/GpxExtensions/v3 http://www.garmin.com/xmlschemas/GpxExtensions/v3/GpxExtensionsv3.xsd"><metadata><link href="http://www.garmin.com"><text>Garmin International</text></link><time>2010-08-25T11:25:58Z</time></metadata><trk><name>ACTIVE LOG: 25 AUG 2010 09:55</name><trkseg><trkpt lat="51.997262" lon="-2.014730"><ele>48.20</ele><time>2010-08-25T08:55:49Z</time></trkpt><trkpt lat="51.997232" lon="-2.014700"><ele>47.24</ele><time>2010-08-25T08:55:52Z</time></trkpt><trkpt lat="51.997132" lon="-2.014603"><ele>46.76</ele><time>2010-08-25T08:56:01Z</time></trkpt><trkpt lat="51.997096" lon="-2.014475"><ele>46.28</ele><time>2010-08-25T08:56:10Z</time></trkpt><trkpt lat="51.997056" lon="-2.014443"><ele>46.76</ele><time>2010-08-25T08:56:24Z</time></trkpt><trkpt lat="51.997051" lon="-2.014460"><ele>45.80</ele><time>2010-08-25T08:56:47Z</time></trkpt><trkpt lat="51.997062" lon="-2.014482"><ele>45.32</ele><time>2010-08-25T08:57:17Z</time></trkpt><trkpt lat="51.997068" lon="-2.014542"><ele>46.28</ele><time>2010-08-25T08:57:39Z</time></trkpt><trkpt lat="51.997069" lon="-2.014533"><ele>45.80</ele><time>2010-08-25T08:58:20Z</time></trkpt><trkpt lat="51.997071" lon="-2.014511"><ele>44.84</ele><time>2010-08-25T08:58:56Z</time></trkpt><trkpt lat="51.997072" lon="-2.014514"><ele>44.84</ele><time>2010-08-25T08:59:43Z</time></trkpt><trkpt lat="51.997078" lon="-2.014510"><ele>44.84</ele><time>2010-08-25T09:00:48Z</time></trkpt><trkpt lat="51.997089" lon="-2.014493"><ele>43.88</ele><time>2010-08-25T09:01:33Z</time></trkpt><trkpt lat="51.997082" lon="-2.014560"><ele>44.36</ele><time>2010-08-25T09:01:46Z</time></trkpt><trkpt lat="51.997055" lon="-2.014652"><ele>44.36</ele><time>2010-08-25T09:01:55Z</time></trkpt><trkpt lat="51.997046" lon="-2.014802"><ele>44.84</ele><time>2010-08-25T09:02:04Z</time></trkpt><trkpt lat="51.997203" lon="-2.015239"><ele>44.84</ele><time>2010-08-25T09:02:29Z</time></trkpt><trkpt lat="51.997293" lon="-2.015510"><ele>44.84</ele><time>2010-08-25T09:02:47Z</time></trkpt><trkpt lat="51.997343" lon="-2.015659"><ele>44.84</ele><time>2010-08-25T09:02:59Z</time></trkpt><trkpt lat="51.997433" lon="-2.015864"><ele>45.32</ele><time>2010-08-25T09:03:14Z</time></trkpt><trkpt lat="51.997460" lon="-2.015943"><ele>45.32</ele><time>2010-08-25T09:03:21Z</time></trkpt><trkpt lat="51.997442" lon="-2.016012"><ele>45.32</ele><time>2010-08-25T09:03:26Z</time></trkpt><trkpt lat="51.997475" lon="-2.016215"><ele>45.32</ele><time>2010-08-25T09:03:43Z</time></trkpt><trkpt lat="51.997462" lon="-2.016188"><ele>44.84</ele><time>2010-08-25T09:04:05Z</time></trkpt><trkpt lat="51.997447" lon="-2.016238"><ele>42.44</ele><time>2010-08-25T09:04:17Z</time></trkpt><trkpt lat="51.997275" lon="-2.016310"><ele>42.92</ele><time>2010-08-25T09:04:35Z</time></trkpt><trkpt lat="51.997106" lon="-2.016437"><ele>43.40</ele><time>2010-08-25T09:04:53Z</time></trkpt><trkpt lat="51.996944" lon="-2.016567"><ele>42.92</ele><time>2010-08-25T09:05:10Z</time></trkpt><trkpt lat="51.996761" lon="-2.016707"><ele>42.92</ele><time>2010-08-25T09:05:29Z</time></trkpt><trkpt lat="51.996580" lon="-2.016765"><ele>42.92</ele><time>2010-08-25T09:05:46Z</time></trkpt><trkpt lat="51.996499" lon="-2.016514"><ele>43.40</ele><time>2010-08-25T09:06:03Z</time></trkpt><trkpt lat="51.996448" lon="-2.016262"><ele>45.80</ele><time>2010-08-25T09:06:19Z</time></trkpt><trkpt lat="51.996387" lon="-2.016009"><ele>45.32</ele><time>2010-08-25T09:06:35Z</time></trkpt><trkpt lat="51.996306" lon="-2.015767"><ele>46.28</ele><time>2010-08-25T09:06:53Z</time></trkpt><trkpt lat="51.996206" lon="-2.015468"><ele>47.72</ele><time>2010-08-25T09:07:13Z</time></trkpt><trkpt lat="51.996099" lon="-2.015173"><ele>49.16</ele><time>2010-08-25T09:07:33Z</time></trkpt><trkpt lat="51.996013" lon="-2.014882"><ele>50.13</ele><time>2010-08-25T09:07:52Z</time></trkpt><trkpt lat="51.995937" lon="-2.014563"><ele>51.09</ele><time>2010-08-25T09:08:12Z</time></trkpt><trkpt lat="51.995863" lon="-2.014338"><ele>52.05</ele><time>2010-08-25T09:08:31Z</time></trkpt><trkpt lat="51.995821" lon="-2.014193"><ele>52.05</ele><time>2010-08-25T09:08:46Z</time></trkpt><trkpt lat="51.995793" lon="-2.014135"><ele>52.05</ele><time>2010-08-25T09:08:59Z</time></trkpt><trkpt lat="51.995815" lon="-2.014275"><ele>51.09</ele><time>2010-08-25T09:09:16Z</time></trkpt><trkpt lat="51.995821" lon="-2.014314"><ele>51.09</ele><time>2010-08-25T09:09:19Z</time></trkpt><trkpt lat="51.995852" lon="-2.014447"><ele>50.61</ele><time>2010-08-25T09:09:32Z</time></trkpt><trkpt lat="51.995847" lon="-2.014396"><ele>51.09</ele><time>2010-08-25T09:09:36Z</time></trkpt><trkpt lat="51.995893" lon="-2.014629"><ele>49.16</ele><time>2010-08-25T09:09:51Z</time></trkpt><trkpt lat="51.995955" lon="-2.014881"><ele>48.20</ele><time>2010-08-25T09:10:06Z</time></trkpt><trkpt lat="51.996047" lon="-2.015178"><ele>47.24</ele><time>2010-08-25T09:10:24Z</time></trkpt><trkpt lat="51.996143" lon="-2.015486"><ele>46.28</ele><time>2010-08-25T09:10:43Z</time></trkpt><trkpt lat="51.996233" lon="-2.015745"><ele>45.80</ele><time>2010-08-25T09:11:00Z</time></trkpt><trkpt lat="51.996333" lon="-2.016071"><ele>46.28</ele><time>2010-08-25T09:11:20Z</time></trkpt><trkpt lat="51.996414" lon="-2.016372"><ele>46.76</ele><time>2010-08-25T09:11:38Z</time></trkpt><trkpt lat="51.996445" lon="-2.016504"><ele>47.24</ele><time>2010-08-25T09:11:55Z</time></trkpt><trkpt lat="51.996489" lon="-2.016698"><ele>46.76</ele><time>2010-08-25T09:12:21Z</time></trkpt><trkpt lat="51.996545" lon="-2.016862"><ele>46.76</ele><time>2010-08-25T09:12:36Z</time></trkpt><trkpt lat="51.996489" lon="-2.016894"><ele>46.28</ele><time>2010-08-25T09:12:47Z</time></trkpt><trkpt lat="51.996351" lon="-2.016988"><ele>45.32</ele><time>2010-08-25T09:13:08Z</time></trkpt><trkpt lat="51.996261" lon="-2.017091"><ele>45.32</ele><time>2010-08-25T09:13:24Z</time></trkpt><trkpt lat="51.996239" lon="-2.017114"><ele>45.80</ele><time>2010-08-25T09:13:53Z</time></trkpt><trkpt lat="51.996130" lon="-2.017192"><ele>45.80</ele><time>2010-08-25T09:14:09Z</time></trkpt><trkpt lat="51.995992" lon="-2.017295"><ele>45.32</ele><time>2010-08-25T09:14:32Z</time></trkpt><trkpt lat="51.995818" lon="-2.017500"><ele>45.32</ele><time>2010-08-25T09:14:51Z</time></trkpt><trkpt lat="51.995664" lon="-2.017717"><ele>44.84</ele><time>2010-08-25T09:15:10Z</time></trkpt><trkpt lat="51.995489" lon="-2.017931"><ele>44.36</ele><time>2010-08-25T09:15:29Z</time></trkpt><trkpt lat="51.995319" lon="-2.018154"><ele>44.84</ele><time>2010-08-25T09:15:49Z</time></trkpt><trkpt lat="51.995212" lon="-2.018293"><ele>44.84</ele><time>2010-08-25T09:16:02Z</time></trkpt><trkpt lat="51.995181" lon="-2.018347"><ele>44.84</ele><time>2010-08-25T09:16:06Z</time></trkpt><trkpt lat="51.994984" lon="-2.018582"><ele>44.84</ele><time>2010-08-25T09:16:27Z</time></trkpt><trkpt lat="51.994796" lon="-2.018768"><ele>45.32</ele><time>2010-08-25T09:16:48Z</time></trkpt><trkpt lat="51.994594" lon="-2.018890"><ele>45.80</ele><time>2010-08-25T09:17:10Z</time></trkpt><trkpt lat="51.994545" lon="-2.018900"><ele>45.80</ele><time>2010-08-25T09:17:26Z</time></trkpt><trkpt lat="51.994512" lon="-2.018957"><ele>46.28</ele><time>2010-08-25T09:17:45Z</time></trkpt><trkpt lat="51.994478" lon="-2.019153"><ele>43.88</ele><time>2010-08-25T09:17:59Z</time></trkpt><trkpt lat="51.994339" lon="-2.019274"><ele>42.44</ele><time>2010-08-25T09:18:15Z</time></trkpt><trkpt lat="51.994183" lon="-2.019437"><ele>41.47</ele><time>2010-08-25T09:18:34Z</time></trkpt><trkpt lat="51.994036" lon="-2.019608"><ele>40.99</ele><time>2010-08-25T09:18:49Z</time></trkpt><trkpt lat="51.993898" lon="-2.019817"><ele>40.51</ele><time>2010-08-25T09:19:07Z</time></trkpt><trkpt lat="51.993803" lon="-2.019996"><ele>41.47</ele><time>2010-08-25T09:19:24Z</time></trkpt><trkpt lat="51.993712" lon="-2.020178"><ele>39.55</ele><time>2010-08-25T09:19:40Z</time></trkpt><trkpt lat="51.993651" lon="-2.020346"><ele>39.55</ele><time>2010-08-25T09:19:55Z</time></trkpt><trkpt lat="51.993630" lon="-2.020441"><ele>40.99</ele><time>2010-08-25T09:20:12Z</time></trkpt><trkpt lat="51.993628" lon="-2.020466"><ele>41.95</ele><time>2010-08-25T09:20:50Z</time></trkpt><trkpt lat="51.993625" lon="-2.020488"><ele>41.95</ele><time>2010-08-25T09:20:59Z</time></trkpt><trkpt lat="51.993616" lon="-2.020529"><ele>41.95</ele><time>2010-08-25T09:21:03Z</time></trkpt><trkpt lat="51.993591" lon="-2.020600"><ele>43.88</ele><time>2010-08-25T09:21:19Z</time></trkpt><trkpt lat="51.993513" lon="-2.020722"><ele>45.80</ele><time>2010-08-25T09:21:33Z</time></trkpt><trkpt lat="51.993450" lon="-2.020921"><ele>46.76</ele><time>2010-08-25T09:21:49Z</time></trkpt><trkpt lat="51.993397" lon="-2.021128"><ele>47.24</ele><time>2010-08-25T09:22:04Z</time></trkpt><trkpt lat="51.993332" lon="-2.021388"><ele>45.80</ele><time>2010-08-25T09:22:24Z</time></trkpt><trkpt lat="51.993267" lon="-2.021661"><ele>45.80</ele><time>2010-08-25T09:22:45Z</time></trkpt><trkpt lat="51.993206" lon="-2.021890"><ele>46.76</ele><time>2010-08-25T09:23:03Z</time></trkpt><trkpt lat="51.993143" lon="-2.022098"><ele>47.72</ele><time>2010-08-25T09:23:21Z</time></trkpt><trkpt lat="51.993128" lon="-2.022163"><ele>48.20</ele><time>2010-08-25T09:23:34Z</time></trkpt><trkpt lat="51.993051" lon="-2.022483"><ele>50.13</ele><time>2010-08-25T09:23:51Z</time></trkpt><trkpt lat="51.992992" lon="-2.022772"><ele>51.09</ele><time>2010-08-25T09:24:11Z</time></trkpt><trkpt lat="51.992929" lon="-2.023006"><ele>52.53</ele><time>2010-08-25T09:24:29Z</time></trkpt><trkpt lat="51.992868" lon="-2.023311"><ele>53.49</ele><time>2010-08-25T09:24:48Z</time></trkpt><trkpt lat="51.992796" lon="-2.023651"><ele>53.97</ele><time>2010-08-25T09:25:11Z</time></trkpt><trkpt lat="51.992731" lon="-2.023879"><ele>54.93</ele><time>2010-08-25T09:25:29Z</time></trkpt><trkpt lat="51.992634" lon="-2.023977"><ele>55.89</ele><time>2010-08-25T09:25:43Z</time></trkpt><trkpt lat="51.992431" lon="-2.024032"><ele>56.86</ele><time>2010-08-25T09:26:02Z</time></trkpt><trkpt lat="51.992423" lon="-2.024024"><ele>56.86</ele><time>2010-08-25T09:26:10Z</time></trkpt><trkpt lat="51.992377" lon="-2.024067"><ele>56.86</ele><time>2010-08-25T09:26:15Z</time></trkpt><trkpt lat="51.992325" lon="-2.024147"><ele>56.86</ele><time>2010-08-25T09:26:20Z</time></trkpt><trkpt lat="51.992202" lon="-2.024386"><ele>57.34</ele><time>2010-08-25T09:26:39Z</time></trkpt><trkpt lat="51.992179" lon="-2.024673"><ele>56.86</ele><time>2010-08-25T09:26:56Z</time></trkpt><trkpt lat="51.992195" lon="-2.024949"><ele>56.86</ele><time>2010-08-25T09:27:13Z</time></trkpt><trkpt lat="51.992207" lon="-2.025242"><ele>55.89</ele><time>2010-08-25T09:27:31Z</time></trkpt><trkpt lat="51.992154" lon="-2.025517"><ele>55.41</ele><time>2010-08-25T09:27:49Z</time></trkpt><trkpt lat="51.992137" lon="-2.025552"><ele>55.41</ele><time>2010-08-25T09:27:52Z</time></trkpt><trkpt lat="51.992040" lon="-2.025599"><ele>55.89</ele><time>2010-08-25T09:28:02Z</time></trkpt><trkpt lat="51.992061" lon="-2.025755"><ele>56.86</ele><time>2010-08-25T09:28:13Z</time></trkpt><trkpt lat="51.992006" lon="-2.025635"><ele>57.34</ele><time>2010-08-25T09:28:21Z</time></trkpt><trkpt lat="51.991795" lon="-2.025727"><ele>57.82</ele><time>2010-08-25T09:28:36Z</time></trkpt><trkpt lat="51.991701" lon="-2.025792"><ele>58.30</ele><time>2010-08-25T09:28:45Z</time></trkpt><trkpt lat="51.991665" lon="-2.025804"><ele>57.82</ele><time>2010-08-25T09:28:49Z</time></trkpt><trkpt lat="51.991530" lon="-2.025877"><ele>56.86</ele><time>2010-08-25T09:29:03Z</time></trkpt><trkpt lat="51.991318" lon="-2.025981"><ele>58.78</ele><time>2010-08-25T09:29:24Z</time></trkpt><trkpt lat="51.991156" lon="-2.026057"><ele>58.78</ele><time>2010-08-25T09:29:40Z</time></trkpt><trkpt lat="51.990990" lon="-2.026131"><ele>61.18</ele><time>2010-08-25T09:29:58Z</time></trkpt><trkpt lat="51.990909" lon="-2.026160"><ele>60.70</ele><time>2010-08-25T09:30:11Z</time></trkpt><trkpt lat="51.990807" lon="-2.026191"><ele>60.70</ele><time>2010-08-25T09:30:26Z</time></trkpt><trkpt lat="51.990660" lon="-2.026242"><ele>62.14</ele><time>2010-08-25T09:30:41Z</time></trkpt><trkpt lat="51.990519" lon="-2.026312"><ele>60.70</ele><time>2010-08-25T09:30:56Z</time></trkpt><trkpt lat="51.990414" lon="-2.026376"><ele>60.70</ele><time>2010-08-25T09:31:13Z</time></trkpt><trkpt lat="51.990353" lon="-2.026382"><ele>60.70</ele><time>2010-08-25T09:31:31Z</time></trkpt><trkpt lat="51.990343" lon="-2.026381"><ele>61.18</ele><time>2010-08-25T09:31:32Z</time></trkpt><trkpt lat="51.990206" lon="-2.026362"><ele>61.66</ele><time>2010-08-25T09:31:46Z</time></trkpt><trkpt lat="51.990129" lon="-2.026386"><ele>62.14</ele><time>2010-08-25T09:31:56Z</time></trkpt><trkpt lat="51.990081" lon="-2.026428"><ele>62.62</ele><time>2010-08-25T09:32:04Z</time></trkpt><trkpt lat="51.990059" lon="-2.026608"><ele>61.18</ele><time>2010-08-25T09:32:21Z</time></trkpt><trkpt lat="51.990051" lon="-2.026602"><ele>59.74</ele><time>2010-08-25T09:32:36Z</time></trkpt><trkpt lat="51.990060" lon="-2.026847"><ele>62.14</ele><time>2010-08-25T09:32:51Z</time></trkpt><trkpt lat="51.990076" lon="-2.026844"><ele>60.22</ele><time>2010-08-25T09:33:12Z</time></trkpt><trkpt lat="51.990104" lon="-2.027143"><ele>62.14</ele><time>2010-08-25T09:33:30Z</time></trkpt><trkpt lat="51.990144" lon="-2.027426"><ele>62.14</ele><time>2010-08-25T09:33:48Z</time></trkpt><trkpt lat="51.990172" lon="-2.027667"><ele>61.66</ele><time>2010-08-25T09:34:03Z</time></trkpt><trkpt lat="51.990236" lon="-2.027895"><ele>62.14</ele><time>2010-08-25T09:34:16Z</time></trkpt><trkpt lat="51.990291" lon="-2.028161"><ele>61.66</ele><time>2010-08-25T09:34:32Z</time></trkpt><trkpt lat="51.990360" lon="-2.028400"><ele>61.66</ele><time>2010-08-25T09:34:48Z</time></trkpt><trkpt lat="51.990409" lon="-2.028617"><ele>61.18</ele><time>2010-08-25T09:35:03Z</time></trkpt><trkpt lat="51.990435" lon="-2.028682"><ele>61.66</ele><time>2010-08-25T09:35:15Z</time></trkpt><trkpt lat="51.990433" lon="-2.028687"><ele>62.14</ele><time>2010-08-25T09:35:28Z</time></trkpt><trkpt lat="51.990411" lon="-2.028690"><ele>62.14</ele><time>2010-08-25T09:35:53Z</time></trkpt><trkpt lat="51.990414" lon="-2.028713"><ele>63.10</ele><time>2010-08-25T09:36:16Z</time></trkpt><trkpt lat="51.990447" lon="-2.028762"><ele>62.62</ele><time>2010-08-25T09:36:23Z</time></trkpt><trkpt lat="51.990489" lon="-2.028917"><ele>63.10</ele><time>2010-08-25T09:36:31Z</time></trkpt><trkpt lat="51.990580" lon="-2.029290"><ele>62.14</ele><time>2010-08-25T09:36:49Z</time></trkpt><trkpt lat="51.990604" lon="-2.029406"><ele>62.14</ele><time>2010-08-25T09:36:55Z</time></trkpt><trkpt lat="51.990659" lon="-2.029737"><ele>61.66</ele><time>2010-08-25T09:37:14Z</time></trkpt><trkpt lat="51.990716" lon="-2.029986"><ele>61.18</ele><time>2010-08-25T09:37:31Z</time></trkpt><trkpt lat="51.990777" lon="-2.030308"><ele>61.18</ele><time>2010-08-25T09:37:50Z</time></trkpt><trkpt lat="51.990832" lon="-2.030551"><ele>61.18</ele><time>2010-08-25T09:38:08Z</time></trkpt><trkpt lat="51.990863" lon="-2.030548"><ele>58.78</ele><time>2010-08-25T09:38:30Z</time></trkpt><trkpt lat="51.990862" lon="-2.030560"><ele>58.30</ele><time>2010-08-25T09:38:41Z</time></trkpt><trkpt lat="51.990874" lon="-2.030837"><ele>58.78</ele><time>2010-08-25T09:38:57Z</time></trkpt><trkpt lat="51.990901" lon="-2.031194"><ele>60.22</ele><time>2010-08-25T09:39:16Z</time></trkpt><trkpt lat="51.990942" lon="-2.031541"><ele>59.74</ele><time>2010-08-25T09:39:35Z</time></trkpt><trkpt lat="51.990978" lon="-2.031891"><ele>60.22</ele><time>2010-08-25T09:39:55Z</time></trkpt><trkpt lat="51.991027" lon="-2.032208"><ele>59.74</ele><time>2010-08-25T09:40:13Z</time></trkpt><trkpt lat="51.991036" lon="-2.032311"><ele>60.22</ele><time>2010-08-25T09:40:19Z</time></trkpt><trkpt lat="51.991072" lon="-2.032630"><ele>60.22</ele><time>2010-08-25T09:40:36Z</time></trkpt><trkpt lat="51.991047" lon="-2.032948"><ele>60.22</ele><time>2010-08-25T09:40:56Z</time></trkpt><trkpt lat="51.991033" lon="-2.033040"><ele>59.26</ele><time>2010-08-25T09:41:11Z</time></trkpt><trkpt lat="51.991018" lon="-2.033072"><ele>59.26</ele><time>2010-08-25T09:41:34Z</time></trkpt><trkpt lat="51.991009" lon="-2.033114"><ele>57.82</ele><time>2010-08-25T09:41:54Z</time></trkpt><trkpt lat="51.990994" lon="-2.033242"><ele>56.86</ele><time>2010-08-25T09:42:05Z</time></trkpt><trkpt lat="51.990937" lon="-2.033452"><ele>58.30</ele><time>2010-08-25T09:42:21Z</time></trkpt><trkpt lat="51.990930" lon="-2.033627"><ele>58.78</ele><time>2010-08-25T09:42:35Z</time></trkpt><trkpt lat="51.990909" lon="-2.033894"><ele>58.30</ele><time>2010-08-25T09:42:52Z</time></trkpt><trkpt lat="51.990906" lon="-2.034066"><ele>58.30</ele><time>2010-08-25T09:43:05Z</time></trkpt><trkpt lat="51.990897" lon="-2.034279"><ele>59.26</ele><time>2010-08-25T09:43:22Z</time></trkpt><trkpt lat="51.990891" lon="-2.034582"><ele>59.26</ele><time>2010-08-25T09:43:42Z</time></trkpt><trkpt lat="51.990893" lon="-2.034807"><ele>59.26</ele><time>2010-08-25T09:43:59Z</time></trkpt><trkpt lat="51.990898" lon="-2.035067"><ele>59.74</ele><time>2010-08-25T09:44:15Z</time></trkpt><trkpt lat="51.990902" lon="-2.035184"><ele>59.26</ele><time>2010-08-25T09:44:29Z</time></trkpt><trkpt lat="51.990936" lon="-2.035482"><ele>59.26</ele><time>2010-08-25T09:44:46Z</time></trkpt><trkpt lat="51.990987" lon="-2.035853"><ele>58.78</ele><time>2010-08-25T09:45:06Z</time></trkpt><trkpt lat="51.991051" lon="-2.036180"><ele>58.78</ele><time>2010-08-25T09:45:24Z</time></trkpt><trkpt lat="51.991124" lon="-2.036488"><ele>59.26</ele><time>2010-08-25T09:45:42Z</time></trkpt><trkpt lat="51.991201" lon="-2.036798"><ele>58.78</ele><time>2010-08-25T09:46:00Z</time></trkpt><trkpt lat="51.991293" lon="-2.037092"><ele>58.30</ele><time>2010-08-25T09:46:18Z</time></trkpt><trkpt lat="51.991386" lon="-2.037403"><ele>57.82</ele><time>2010-08-25T09:46:37Z</time></trkpt><trkpt lat="51.991395" lon="-2.037662"><ele>58.78</ele><time>2010-08-25T09:46:53Z</time></trkpt><trkpt lat="51.991366" lon="-2.037857"><ele>58.78</ele><time>2010-08-25T09:47:08Z</time></trkpt><trkpt lat="51.991425" lon="-2.038203"><ele>57.82</ele><time>2010-08-25T09:47:29Z</time></trkpt><trkpt lat="51.991461" lon="-2.038461"><ele>58.78</ele><time>2010-08-25T09:47:45Z</time></trkpt><trkpt lat="51.991480" lon="-2.038550"><ele>59.26</ele><time>2010-08-25T09:47:51Z</time></trkpt><trkpt lat="51.991485" lon="-2.038593"><ele>58.78</ele><time>2010-08-25T09:47:54Z</time></trkpt><trkpt lat="51.991529" lon="-2.038851"><ele>58.78</ele><time>2010-08-25T09:48:11Z</time></trkpt><trkpt lat="51.991562" lon="-2.039070"><ele>58.78</ele><time>2010-08-25T09:48:26Z</time></trkpt><trkpt lat="51.991589" lon="-2.039302"><ele>58.30</ele><time>2010-08-25T09:48:42Z</time></trkpt><trkpt lat="51.991615" lon="-2.039508"><ele>57.82</ele><time>2010-08-25T09:48:56Z</time></trkpt><trkpt lat="51.991615" lon="-2.039515"><ele>57.82</ele><time>2010-08-25T09:48:57Z</time></trkpt><trkpt lat="51.991605" lon="-2.039566"><ele>57.82</ele><time>2010-08-25T09:49:02Z</time></trkpt><trkpt lat="51.991604" lon="-2.039596"><ele>57.34</ele><time>2010-08-25T09:49:04Z</time></trkpt><trkpt lat="51.991612" lon="-2.039659"><ele>56.86</ele><time>2010-08-25T09:49:08Z</time></trkpt><trkpt lat="51.991508" lon="-2.039810"><ele>57.82</ele><time>2010-08-25T09:49:23Z</time></trkpt><trkpt lat="51.991478" lon="-2.039863"><ele>58.30</ele><time>2010-08-25T09:49:30Z</time></trkpt><trkpt lat="51.991479" lon="-2.039918"><ele>58.30</ele><time>2010-08-25T09:49:34Z</time></trkpt><trkpt lat="51.991551" lon="-2.040176"><ele>58.78</ele><time>2010-08-25T09:49:50Z</time></trkpt><trkpt lat="51.991591" lon="-2.040344"><ele>58.30</ele><time>2010-08-25T09:50:01Z</time></trkpt><trkpt lat="51.991659" lon="-2.040585"><ele>56.37</ele><time>2010-08-25T09:50:18Z</time></trkpt><trkpt lat="51.991730" lon="-2.040832"><ele>55.41</ele><time>2010-08-25T09:50:34Z</time></trkpt><trkpt lat="51.991898" lon="-2.040982"><ele>55.41</ele><time>2010-08-25T09:50:50Z</time></trkpt><trkpt lat="51.992049" lon="-2.041065"><ele>54.45</ele><time>2010-08-25T09:51:06Z</time></trkpt><trkpt lat="51.992125" lon="-2.041127"><ele>56.37</ele><time>2010-08-25T09:51:15Z</time></trkpt><trkpt lat="51.992248" lon="-2.041174"><ele>56.37</ele><time>2010-08-25T09:51:28Z</time></trkpt><trkpt lat="51.992269" lon="-2.041180"><ele>56.37</ele><time>2010-08-25T09:51:30Z</time></trkpt><trkpt lat="51.992478" lon="-2.041220"><ele>55.89</ele><time>2010-08-25T09:51:48Z</time></trkpt><trkpt lat="51.992660" lon="-2.041278"><ele>55.89</ele><time>2010-08-25T09:52:05Z</time></trkpt><trkpt lat="51.992807" lon="-2.041339"><ele>53.97</ele><time>2010-08-25T09:52:20Z</time></trkpt><trkpt lat="51.993009" lon="-2.041402"><ele>50.61</ele><time>2010-08-25T09:52:40Z</time></trkpt><trkpt lat="51.993202" lon="-2.041497"><ele>53.01</ele><time>2010-08-25T09:52:59Z</time></trkpt><trkpt lat="51.993367" lon="-2.041554"><ele>53.01</ele><time>2010-08-25T09:53:15Z</time></trkpt><trkpt lat="51.993499" lon="-2.041628"><ele>53.49</ele><time>2010-08-25T09:53:29Z</time></trkpt><trkpt lat="51.993633" lon="-2.041691"><ele>53.97</ele><time>2010-08-25T09:53:43Z</time></trkpt><trkpt lat="51.993708" lon="-2.041716"><ele>52.05</ele><time>2010-08-25T09:53:54Z</time></trkpt><trkpt lat="51.993790" lon="-2.041771"><ele>53.01</ele><time>2010-08-25T09:54:07Z</time></trkpt><trkpt lat="51.993807" lon="-2.041796"><ele>53.97</ele><time>2010-08-25T09:54:21Z</time></trkpt><trkpt lat="51.993817" lon="-2.041833"><ele>53.49</ele><time>2010-08-25T09:54:41Z</time></trkpt><trkpt lat="51.993811" lon="-2.041828"><ele>52.05</ele><time>2010-08-25T09:54:59Z</time></trkpt><trkpt lat="51.993872" lon="-2.041837"><ele>52.05</ele><time>2010-08-25T09:55:14Z</time></trkpt><trkpt lat="51.993989" lon="-2.041893"><ele>53.01</ele><time>2010-08-25T09:55:27Z</time></trkpt><trkpt lat="51.994111" lon="-2.041919"><ele>53.49</ele><time>2010-08-25T09:55:40Z</time></trkpt><trkpt lat="51.994230" lon="-2.041861"><ele>55.41</ele><time>2010-08-25T09:55:54Z</time></trkpt><trkpt lat="51.994332" lon="-2.041828"><ele>55.89</ele><time>2010-08-25T09:56:04Z</time></trkpt><trkpt lat="51.994381" lon="-2.041824"><ele>55.41</ele><time>2010-08-25T09:56:08Z</time></trkpt><trkpt lat="51.994567" lon="-2.041816"><ele>56.37</ele><time>2010-08-25T09:56:25Z</time></trkpt><trkpt lat="51.994761" lon="-2.041811"><ele>56.86</ele><time>2010-08-25T09:56:43Z</time></trkpt><trkpt lat="51.994988" lon="-2.041817"><ele>57.34</ele><time>2010-08-25T09:57:01Z</time></trkpt><trkpt lat="51.995062" lon="-2.041817"><ele>57.34</ele><time>2010-08-25T09:57:07Z</time></trkpt><trkpt lat="51.995330" lon="-2.041812"><ele>58.30</ele><time>2010-08-25T09:57:28Z</time></trkpt><trkpt lat="51.995621" lon="-2.041815"><ele>58.30</ele><time>2010-08-25T09:57:51Z</time></trkpt><trkpt lat="51.995925" lon="-2.041795"><ele>59.26</ele><time>2010-08-25T09:58:15Z</time></trkpt><trkpt lat="51.996144" lon="-2.041770"><ele>58.78</ele><time>2010-08-25T09:58:33Z</time></trkpt><trkpt lat="51.996432" lon="-2.041727"><ele>56.86</ele><time>2010-08-25T09:58:57Z</time></trkpt><trkpt lat="51.996641" lon="-2.041666"><ele>56.37</ele><time>2010-08-25T09:59:14Z</time></trkpt><trkpt lat="51.996831" lon="-2.041602"><ele>57.34</ele><time>2010-08-25T09:59:29Z</time></trkpt><trkpt lat="51.997118" lon="-2.041510"><ele>57.82</ele><time>2010-08-25T09:59:52Z</time></trkpt><trkpt lat="51.997367" lon="-2.041412"><ele>57.34</ele><time>2010-08-25T10:00:12Z</time></trkpt><trkpt lat="51.997594" lon="-2.041338"><ele>56.37</ele><time>2010-08-25T10:00:31Z</time></trkpt><trkpt lat="51.997749" lon="-2.041225"><ele>56.37</ele><time>2010-08-25T10:00:46Z</time></trkpt><trkpt lat="51.997901" lon="-2.041150"><ele>55.41</ele><time>2010-08-25T10:01:00Z</time></trkpt><trkpt lat="51.998023" lon="-2.041059"><ele>55.41</ele><time>2010-08-25T10:01:15Z</time></trkpt><trkpt lat="51.998082" lon="-2.041010"><ele>56.37</ele><time>2010-08-25T10:01:33Z</time></trkpt><trkpt lat="51.998080" lon="-2.041014"><ele>52.53</ele><time>2010-08-25T10:03:33Z</time></trkpt><trkpt lat="51.998080" lon="-2.041008"><ele>52.53</ele><time>2010-08-25T10:04:27Z</time></trkpt><trkpt lat="51.998085" lon="-2.041006"><ele>52.05</ele><time>2010-08-25T10:05:23Z</time></trkpt><trkpt lat="51.998081" lon="-2.041004"><ele>51.09</ele><time>2010-08-25T10:10:52Z</time></trkpt><trkpt lat="51.998078" lon="-2.041010"><ele>51.57</ele><time>2010-08-25T10:12:40Z</time></trkpt><trkpt lat="51.998070" lon="-2.041014"><ele>52.53</ele><time>2010-08-25T10:13:37Z</time></trkpt><trkpt lat="51.998071" lon="-2.040997"><ele>52.05</ele><time>2010-08-25T10:13:55Z</time></trkpt><trkpt lat="51.998064" lon="-2.040979"><ele>51.57</ele><time>2010-08-25T10:14:10Z</time></trkpt><trkpt lat="51.998070" lon="-2.040984"><ele>51.57</ele><time>2010-08-25T10:15:23Z</time></trkpt><trkpt lat="51.998066" lon="-2.040985"><ele>51.57</ele><time>2010-08-25T10:16:09Z</time></trkpt><trkpt lat="51.998073" lon="-2.040980"><ele>53.01</ele><time>2010-08-25T10:17:15Z</time></trkpt><trkpt lat="51.998070" lon="-2.041001"><ele>54.45</ele><time>2010-08-25T10:18:02Z</time></trkpt><trkpt lat="51.998063" lon="-2.041043"><ele>53.01</ele><time>2010-08-25T10:18:57Z</time></trkpt><trkpt lat="51.998057" lon="-2.041067"><ele>53.49</ele><time>2010-08-25T10:19:28Z</time></trkpt><trkpt lat="51.998068" lon="-2.041046"><ele>54.93</ele><time>2010-08-25T10:20:24Z</time></trkpt><trkpt lat="51.998096" lon="-2.041040"><ele>55.89</ele><time>2010-08-25T10:22:16Z</time></trkpt><trkpt lat="51.998133" lon="-2.041038"><ele>53.01</ele><time>2010-08-25T10:22:28Z</time></trkpt><trkpt lat="51.998155" lon="-2.041035"><ele>52.05</ele><time>2010-08-25T10:22:58Z</time></trkpt><trkpt lat="51.998290" lon="-2.041022"><ele>52.53</ele><time>2010-08-25T10:23:21Z</time></trkpt><trkpt lat="51.998494" lon="-2.040988"><ele>53.97</ele><time>2010-08-25T10:23:38Z</time></trkpt><trkpt lat="51.998723" lon="-2.040969"><ele>53.97</ele><time>2010-08-25T10:23:57Z</time></trkpt><trkpt lat="51.998975" lon="-2.040940"><ele>54.45</ele><time>2010-08-25T10:24:18Z</time></trkpt><trkpt lat="51.999176" lon="-2.040916"><ele>54.45</ele><time>2010-08-25T10:24:35Z</time></trkpt><trkpt lat="51.999393" lon="-2.040908"><ele>53.49</ele><time>2010-08-25T10:24:55Z</time></trkpt><trkpt lat="51.999550" lon="-2.040894"><ele>52.53</ele><time>2010-08-25T10:25:10Z</time></trkpt><trkpt lat="51.999614" lon="-2.040897"><ele>53.01</ele><time>2010-08-25T10:25:16Z</time></trkpt><trkpt lat="51.999659" lon="-2.040889"><ele>53.01</ele><time>2010-08-25T10:25:20Z</time></trkpt><trkpt lat="51.999886" lon="-2.040871"><ele>53.49</ele><time>2010-08-25T10:25:40Z</time></trkpt><trkpt lat="52.000064" lon="-2.040869"><ele>53.97</ele><time>2010-08-25T10:25:56Z</time></trkpt><trkpt lat="52.000245" lon="-2.040872"><ele>53.01</ele><time>2010-08-25T10:26:13Z</time></trkpt><trkpt lat="52.000446" lon="-2.040850"><ele>53.01</ele><time>2010-08-25T10:26:32Z</time></trkpt><trkpt lat="52.000602" lon="-2.040835"><ele>52.53</ele><time>2010-08-25T10:26:47Z</time></trkpt><trkpt lat="52.000772" lon="-2.040819"><ele>53.49</ele><time>2010-08-25T10:27:03Z</time></trkpt><trkpt lat="52.000969" lon="-2.040807"><ele>52.05</ele><time>2010-08-25T10:27:23Z</time></trkpt><trkpt lat="52.001141" lon="-2.040832"><ele>52.05</ele><time>2010-08-25T10:27:39Z</time></trkpt><trkpt lat="52.001342" lon="-2.040811"><ele>51.57</ele><time>2010-08-25T10:27:58Z</time></trkpt><trkpt lat="52.001474" lon="-2.040738"><ele>50.61</ele><time>2010-08-25T10:28:11Z</time></trkpt><trkpt lat="52.001665" lon="-2.040602"><ele>49.65</ele><time>2010-08-25T10:28:30Z</time></trkpt><trkpt lat="52.001705" lon="-2.040566"><ele>48.68</ele><time>2010-08-25T10:28:34Z</time></trkpt><trkpt lat="52.001900" lon="-2.040395"><ele>47.24</ele><time>2010-08-25T10:28:54Z</time></trkpt><trkpt lat="52.002073" lon="-2.040237"><ele>47.24</ele><time>2010-08-25T10:29:12Z</time></trkpt><trkpt lat="52.002280" lon="-2.040101"><ele>47.24</ele><time>2010-08-25T10:29:32Z</time></trkpt><trkpt lat="52.002499" lon="-2.039980"><ele>46.76</ele><time>2010-08-25T10:29:53Z</time></trkpt><trkpt lat="52.002678" lon="-2.039899"><ele>46.76</ele><time>2010-08-25T10:30:10Z</time></trkpt><trkpt lat="52.002771" lon="-2.039854"><ele>47.24</ele><time>2010-08-25T10:30:27Z</time></trkpt><trkpt lat="52.002811" lon="-2.039878"><ele>47.72</ele><time>2010-08-25T10:30:43Z</time></trkpt><trkpt lat="52.002911" lon="-2.039828"><ele>48.68</ele><time>2010-08-25T10:31:28Z</time></trkpt><trkpt lat="52.002914" lon="-2.039817"><ele>48.20</ele><time>2010-08-25T10:31:33Z</time></trkpt><trkpt lat="52.002918" lon="-2.039632"><ele>48.68</ele><time>2010-08-25T10:31:44Z</time></trkpt><trkpt lat="52.002908" lon="-2.039398"><ele>49.65</ele><time>2010-08-25T10:31:58Z</time></trkpt><trkpt lat="52.002886" lon="-2.039192"><ele>51.57</ele><time>2010-08-25T10:32:12Z</time></trkpt><trkpt lat="52.002884" lon="-2.039045"><ele>50.13</ele><time>2010-08-25T10:32:22Z</time></trkpt><trkpt lat="52.002869" lon="-2.038893"><ele>49.16</ele><time>2010-08-25T10:32:31Z</time></trkpt><trkpt lat="52.002882" lon="-2.038807"><ele>48.20</ele><time>2010-08-25T10:32:40Z</time></trkpt><trkpt lat="52.002922" lon="-2.038709"><ele>45.80</ele><time>2010-08-25T10:32:57Z</time></trkpt><trkpt lat="52.002966" lon="-2.038629"><ele>45.32</ele><time>2010-08-25T10:33:11Z</time></trkpt><trkpt lat="52.003064" lon="-2.038468"><ele>45.32</ele><time>2010-08-25T10:33:25Z</time></trkpt><trkpt lat="52.003144" lon="-2.038272"><ele>45.32</ele><time>2010-08-25T10:33:39Z</time></trkpt><trkpt lat="52.003201" lon="-2.038039"><ele>44.84</ele><time>2010-08-25T10:33:53Z</time></trkpt><trkpt lat="52.003321" lon="-2.037749"><ele>44.84</ele><time>2010-08-25T10:34:13Z</time></trkpt><trkpt lat="52.003425" lon="-2.037502"><ele>44.36</ele><time>2010-08-25T10:34:30Z</time></trkpt><trkpt lat="52.003530" lon="-2.037277"><ele>44.36</ele><time>2010-08-25T10:34:47Z</time></trkpt><trkpt lat="52.003557" lon="-2.037186"><ele>44.36</ele><time>2010-08-25T10:34:53Z</time></trkpt><trkpt lat="52.003579" lon="-2.037112"><ele>43.88</ele><time>2010-08-25T10:34:58Z</time></trkpt><trkpt lat="52.003680" lon="-2.036819"><ele>42.92</ele><time>2010-08-25T10:35:16Z</time></trkpt><trkpt lat="52.003720" lon="-2.036714"><ele>42.92</ele><time>2010-08-25T10:35:23Z</time></trkpt><trkpt lat="52.003792" lon="-2.036463"><ele>41.95</ele><time>2010-08-25T10:35:39Z</time></trkpt><trkpt lat="52.003889" lon="-2.036192"><ele>41.95</ele><time>2010-08-25T10:35:57Z</time></trkpt><trkpt lat="52.003967" lon="-2.035998"><ele>41.47</ele><time>2010-08-25T10:36:10Z</time></trkpt><trkpt lat="52.004066" lon="-2.035760"><ele>41.95</ele><time>2010-08-25T10:36:27Z</time></trkpt><trkpt lat="52.004148" lon="-2.035498"><ele>41.47</ele><time>2010-08-25T10:36:45Z</time></trkpt><trkpt lat="52.004213" lon="-2.035274"><ele>40.51</ele><time>2010-08-25T10:36:59Z</time></trkpt><trkpt lat="52.004260" lon="-2.035035"><ele>40.51</ele><time>2010-08-25T10:37:14Z</time></trkpt><trkpt lat="52.004227" lon="-2.034738"><ele>41.47</ele><time>2010-08-25T10:37:33Z</time></trkpt><trkpt lat="52.004220" lon="-2.034726"><ele>41.47</ele><time>2010-08-25T10:37:34Z</time></trkpt><trkpt lat="52.004041" lon="-2.034521"><ele>40.99</ele><time>2010-08-25T10:37:54Z</time></trkpt><trkpt lat="52.003837" lon="-2.034421"><ele>40.99</ele><time>2010-08-25T10:38:14Z</time></trkpt><trkpt lat="52.003648" lon="-2.034342"><ele>41.95</ele><time>2010-08-25T10:38:32Z</time></trkpt><trkpt lat="52.003442" lon="-2.034236"><ele>40.51</ele><time>2010-08-25T10:38:52Z</time></trkpt><trkpt lat="52.003413" lon="-2.034194"><ele>40.99</ele><time>2010-08-25T10:39:04Z</time></trkpt><trkpt lat="52.003412" lon="-2.034199"><ele>40.99</ele><time>2010-08-25T10:39:10Z</time></trkpt><trkpt lat="52.003390" lon="-2.034256"><ele>41.47</ele><time>2010-08-25T10:39:20Z</time></trkpt><trkpt lat="52.003332" lon="-2.034259"><ele>41.95</ele><time>2010-08-25T10:39:28Z</time></trkpt><trkpt lat="52.003425" lon="-2.034162"><ele>42.44</ele><time>2010-08-25T10:39:39Z</time></trkpt><trkpt lat="52.003454" lon="-2.034049"><ele>41.47</ele><time>2010-08-25T10:39:52Z</time></trkpt><trkpt lat="52.003478" lon="-2.033994"><ele>38.59</ele><time>2010-08-25T10:40:23Z</time></trkpt><trkpt lat="52.003647" lon="-2.033802"><ele>39.55</ele><time>2010-08-25T10:40:41Z</time></trkpt><trkpt lat="52.003794" lon="-2.033620"><ele>40.99</ele><time>2010-08-25T10:40:57Z</time></trkpt><trkpt lat="52.003936" lon="-2.033439"><ele>42.44</ele><time>2010-08-25T10:41:13Z</time></trkpt><trkpt lat="52.003970" lon="-2.033395"><ele>41.95</ele><time>2010-08-25T10:41:17Z</time></trkpt><trkpt lat="52.004113" lon="-2.033222"><ele>42.44</ele><time>2010-08-25T10:41:34Z</time></trkpt><trkpt lat="52.004173" lon="-2.033118"><ele>41.95</ele><time>2010-08-25T10:41:54Z</time></trkpt><trkpt lat="52.004170" lon="-2.033121"><ele>41.95</ele><time>2010-08-25T10:42:23Z</time></trkpt><trkpt lat="52.004172" lon="-2.033146"><ele>42.44</ele><time>2010-08-25T10:42:41Z</time></trkpt><trkpt lat="52.004208" lon="-2.033297"><ele>41.95</ele><time>2010-08-25T10:42:50Z</time></trkpt><trkpt lat="52.004198" lon="-2.033332"><ele>41.47</ele><time>2010-08-25T10:42:53Z</time></trkpt><trkpt lat="52.004163" lon="-2.033360"><ele>41.95</ele><time>2010-08-25T10:42:58Z</time></trkpt><trkpt lat="52.004025" lon="-2.033502"><ele>40.99</ele><time>2010-08-25T10:43:15Z</time></trkpt><trkpt lat="52.003874" lon="-2.033620"><ele>40.99</ele><time>2010-08-25T10:43:32Z</time></trkpt><trkpt lat="52.003738" lon="-2.033727"><ele>40.51</ele><time>2010-08-25T10:43:48Z</time></trkpt><trkpt lat="52.003658" lon="-2.033769"><ele>40.51</ele><time>2010-08-25T10:44:35Z</time></trkpt><trkpt lat="52.003484" lon="-2.033929"><ele>40.03</ele><time>2010-08-25T10:44:54Z</time></trkpt><trkpt lat="52.003400" lon="-2.034059"><ele>40.51</ele><time>2010-08-25T10:45:10Z</time></trkpt><trkpt lat="52.003365" lon="-2.034163"><ele>40.99</ele><time>2010-08-25T10:45:27Z</time></trkpt><trkpt lat="52.003346" lon="-2.034148"><ele>40.51</ele><time>2010-08-25T10:45:30Z</time></trkpt><trkpt lat="52.003173" lon="-2.034065"><ele>40.51</ele><time>2010-08-25T10:45:48Z</time></trkpt><trkpt lat="52.002983" lon="-2.034012"><ele>40.03</ele><time>2010-08-25T10:46:06Z</time></trkpt><trkpt lat="52.002810" lon="-2.033971"><ele>40.03</ele><time>2010-08-25T10:46:23Z</time></trkpt><trkpt lat="52.002588" lon="-2.033943"><ele>40.99</ele><time>2010-08-25T10:46:43Z</time></trkpt><trkpt lat="52.002440" lon="-2.033921"><ele>40.99</ele><time>2010-08-25T10:46:58Z</time></trkpt><trkpt lat="52.002231" lon="-2.033921"><ele>40.99</ele><time>2010-08-25T10:47:18Z</time></trkpt><trkpt lat="52.002031" lon="-2.033974"><ele>40.99</ele><time>2010-08-25T10:47:37Z</time></trkpt><trkpt lat="52.001828" lon="-2.034071"><ele>41.47</ele><time>2010-08-25T10:47:58Z</time></trkpt><trkpt lat="52.001661" lon="-2.034167"><ele>41.47</ele><time>2010-08-25T10:48:15Z</time></trkpt><trkpt lat="52.001505" lon="-2.034252"><ele>41.47</ele><time>2010-08-25T10:48:32Z</time></trkpt><trkpt lat="52.001395" lon="-2.034246"><ele>41.95</ele><time>2010-08-25T10:48:48Z</time></trkpt><trkpt lat="52.001393" lon="-2.034244"><ele>41.47</ele><time>2010-08-25T10:49:09Z</time></trkpt><trkpt lat="52.001353" lon="-2.034048"><ele>43.88</ele><time>2010-08-25T10:49:23Z</time></trkpt><trkpt lat="52.001340" lon="-2.033816"><ele>43.88</ele><time>2010-08-25T10:49:37Z</time></trkpt><trkpt lat="52.001324" lon="-2.033542"><ele>44.36</ele><time>2010-08-25T10:49:54Z</time></trkpt><trkpt lat="52.001246" lon="-2.033502"><ele>44.36</ele><time>2010-08-25T10:50:01Z</time></trkpt><trkpt lat="52.001216" lon="-2.033450"><ele>44.36</ele><time>2010-08-25T10:50:05Z</time></trkpt><trkpt lat="52.001213" lon="-2.033102"><ele>44.36</ele><time>2010-08-25T10:50:24Z</time></trkpt><trkpt lat="52.001206" lon="-2.032786"><ele>44.36</ele><time>2010-08-25T10:50:43Z</time></trkpt><trkpt lat="52.001200" lon="-2.032486"><ele>44.84</ele><time>2010-08-25T10:51:01Z</time></trkpt><trkpt lat="52.001191" lon="-2.032316"><ele>43.88</ele><time>2010-08-25T10:51:15Z</time></trkpt><trkpt lat="52.001183" lon="-2.032007"><ele>43.88</ele><time>2010-08-25T10:51:33Z</time></trkpt><trkpt lat="52.001175" lon="-2.031843"><ele>44.36</ele><time>2010-08-25T10:51:50Z</time></trkpt><trkpt lat="52.001191" lon="-2.031616"><ele>45.80</ele><time>2010-08-25T10:52:06Z</time></trkpt><trkpt lat="52.001193" lon="-2.031358"><ele>45.32</ele><time>2010-08-25T10:52:24Z</time></trkpt><trkpt lat="52.001183" lon="-2.031052"><ele>45.80</ele><time>2010-08-25T10:52:41Z</time></trkpt><trkpt lat="52.001184" lon="-2.030841"><ele>46.76</ele><time>2010-08-25T10:52:56Z</time></trkpt><trkpt lat="52.001176" lon="-2.030484"><ele>46.76</ele><time>2010-08-25T10:53:17Z</time></trkpt><trkpt lat="52.001166" lon="-2.030188"><ele>46.76</ele><time>2010-08-25T10:53:34Z</time></trkpt><trkpt lat="52.001159" lon="-2.030030"><ele>45.80</ele><time>2010-08-25T10:53:44Z</time></trkpt><trkpt lat="52.001141" lon="-2.029956"><ele>44.84</ele><time>2010-08-25T10:53:49Z</time></trkpt><trkpt lat="52.001149" lon="-2.029628"><ele>45.32</ele><time>2010-08-25T10:54:08Z</time></trkpt><trkpt lat="52.001161" lon="-2.029396"><ele>45.80</ele><time>2010-08-25T10:54:23Z</time></trkpt><trkpt lat="52.001112" lon="-2.029337"><ele>44.84</ele><time>2010-08-25T10:54:40Z</time></trkpt><trkpt lat="52.001104" lon="-2.029346"><ele>44.36</ele><time>2010-08-25T10:54:44Z</time></trkpt><trkpt lat="52.000946" lon="-2.029349"><ele>43.88</ele><time>2010-08-25T10:55:01Z</time></trkpt><trkpt lat="52.000743" lon="-2.029388"><ele>43.40</ele><time>2010-08-25T10:55:23Z</time></trkpt><trkpt lat="52.000550" lon="-2.029351"><ele>42.92</ele><time>2010-08-25T10:55:41Z</time></trkpt><trkpt lat="52.000430" lon="-2.029360"><ele>43.88</ele><time>2010-08-25T10:55:56Z</time></trkpt><trkpt lat="52.000328" lon="-2.029363"><ele>44.36</ele><time>2010-08-25T10:56:08Z</time></trkpt><trkpt lat="52.000190" lon="-2.029372"><ele>44.36</ele><time>2010-08-25T10:56:24Z</time></trkpt><trkpt lat="52.000039" lon="-2.029377"><ele>44.84</ele><time>2010-08-25T10:56:42Z</time></trkpt><trkpt lat="51.999897" lon="-2.029363"><ele>44.84</ele><time>2010-08-25T10:56:58Z</time></trkpt><trkpt lat="51.999770" lon="-2.029335"><ele>44.36</ele><time>2010-08-25T10:57:12Z</time></trkpt><trkpt lat="51.999625" lon="-2.029324"><ele>44.84</ele><time>2010-08-25T10:57:27Z</time></trkpt><trkpt lat="51.999461" lon="-2.029313"><ele>44.84</ele><time>2010-08-25T10:57:45Z</time></trkpt><trkpt lat="51.999297" lon="-2.029258"><ele>45.32</ele><time>2010-08-25T10:58:04Z</time></trkpt><trkpt lat="51.999200" lon="-2.029237"><ele>44.84</ele><time>2010-08-25T10:58:46Z</time></trkpt><trkpt lat="51.999021" lon="-2.029195"><ele>45.32</ele><time>2010-08-25T10:59:03Z</time></trkpt><trkpt lat="51.998935" lon="-2.029175"><ele>45.80</ele><time>2010-08-25T10:59:18Z</time></trkpt><trkpt lat="51.998762" lon="-2.029124"><ele>45.80</ele><time>2010-08-25T10:59:36Z</time></trkpt><trkpt lat="51.998613" lon="-2.029070"><ele>46.28</ele><time>2010-08-25T10:59:54Z</time></trkpt><trkpt lat="51.998483" lon="-2.029029"><ele>46.28</ele><time>2010-08-25T11:00:09Z</time></trkpt><trkpt lat="51.998339" lon="-2.028976"><ele>46.28</ele><time>2010-08-25T11:00:25Z</time></trkpt><trkpt lat="51.998261" lon="-2.028964"><ele>46.28</ele><time>2010-08-25T11:00:37Z</time></trkpt><trkpt lat="51.998064" lon="-2.028887"><ele>45.32</ele><time>2010-08-25T11:00:56Z</time></trkpt><trkpt lat="51.997914" lon="-2.028822"><ele>45.80</ele><time>2010-08-25T11:01:12Z</time></trkpt><trkpt lat="51.997804" lon="-2.028762"><ele>45.32</ele><time>2010-08-25T11:01:27Z</time></trkpt><trkpt lat="51.997756" lon="-2.028715"><ele>43.40</ele><time>2010-08-25T11:01:53Z</time></trkpt><trkpt lat="51.997751" lon="-2.028713"><ele>43.88</ele><time>2010-08-25T11:02:46Z</time></trkpt><trkpt lat="51.997728" lon="-2.028710"><ele>44.36</ele><time>2010-08-25T11:03:12Z</time></trkpt><trkpt lat="51.997692" lon="-2.028714"><ele>46.28</ele><time>2010-08-25T11:03:35Z</time></trkpt><trkpt lat="51.997679" lon="-2.028703"><ele>45.80</ele><time>2010-08-25T11:03:44Z</time></trkpt><trkpt lat="51.997661" lon="-2.028704"><ele>46.28</ele><time>2010-08-25T11:03:46Z</time></trkpt><trkpt lat="51.997446" lon="-2.028737"><ele>46.76</ele><time>2010-08-25T11:04:04Z</time></trkpt><trkpt lat="51.997251" lon="-2.028723"><ele>47.24</ele><time>2010-08-25T11:04:22Z</time></trkpt><trkpt lat="51.997037" lon="-2.028743"><ele>48.68</ele><time>2010-08-25T11:04:43Z</time></trkpt><trkpt lat="51.996932" lon="-2.028757"><ele>49.65</ele><time>2010-08-25T11:04:57Z</time></trkpt><trkpt lat="51.996766" lon="-2.028760"><ele>51.09</ele><time>2010-08-25T11:05:13Z</time></trkpt><trkpt lat="51.996554" lon="-2.028760"><ele>52.53</ele><time>2010-08-25T11:05:32Z</time></trkpt><trkpt lat="51.996338" lon="-2.028736"><ele>53.49</ele><time>2010-08-25T11:05:52Z</time></trkpt><trkpt lat="51.996153" lon="-2.028728"><ele>53.49</ele><time>2010-08-25T11:06:10Z</time></trkpt><trkpt lat="51.995978" lon="-2.028729"><ele>52.53</ele><time>2010-08-25T11:06:27Z</time></trkpt><trkpt lat="51.995796" lon="-2.028723"><ele>53.01</ele><time>2010-08-25T11:06:44Z</time></trkpt><trkpt lat="51.995617" lon="-2.028726"><ele>53.49</ele><time>2010-08-25T11:07:01Z</time></trkpt><trkpt lat="51.995468" lon="-2.028704"><ele>53.97</ele><time>2010-08-25T11:07:15Z</time></trkpt><trkpt lat="51.995304" lon="-2.028718"><ele>53.49</ele><time>2010-08-25T11:07:32Z</time></trkpt><trkpt lat="51.995189" lon="-2.028717"><ele>54.93</ele><time>2010-08-25T11:07:46Z</time></trkpt><trkpt lat="51.995165" lon="-2.028700"><ele>55.41</ele><time>2010-08-25T11:08:00Z</time></trkpt><trkpt lat="51.995146" lon="-2.028655"><ele>52.53</ele><time>2010-08-25T11:08:16Z</time></trkpt><trkpt lat="51.995140" lon="-2.028615"><ele>52.05</ele><time>2010-08-25T11:08:21Z</time></trkpt><trkpt lat="51.995100" lon="-2.028561"><ele>53.01</ele><time>2010-08-25T11:08:27Z</time></trkpt><trkpt lat="51.994967" lon="-2.028547"><ele>54.93</ele><time>2010-08-25T11:08:45Z</time></trkpt><trkpt lat="51.994824" lon="-2.028608"><ele>54.45</ele><time>2010-08-25T11:09:01Z</time></trkpt><trkpt lat="51.994644" lon="-2.028623"><ele>54.93</ele><time>2010-08-25T11:09:20Z</time></trkpt><trkpt lat="51.994445" lon="-2.028642"><ele>54.93</ele><time>2010-08-25T11:09:39Z</time></trkpt><trkpt lat="51.994290" lon="-2.028670"><ele>53.97</ele><time>2010-08-25T11:09:54Z</time></trkpt><trkpt lat="51.994103" lon="-2.028721"><ele>54.93</ele><time>2010-08-25T11:10:12Z</time></trkpt><trkpt lat="51.993941" lon="-2.028748"><ele>55.89</ele><time>2010-08-25T11:10:27Z</time></trkpt><trkpt lat="51.993771" lon="-2.028786"><ele>55.41</ele><time>2010-08-25T11:10:44Z</time></trkpt><trkpt lat="51.993578" lon="-2.028832"><ele>54.93</ele><time>2010-08-25T11:11:01Z</time></trkpt><trkpt lat="51.993425" lon="-2.028863"><ele>55.41</ele><time>2010-08-25T11:11:15Z</time></trkpt><trkpt lat="51.993255" lon="-2.028910"><ele>55.41</ele><time>2010-08-25T11:11:31Z</time></trkpt><trkpt lat="51.993039" lon="-2.028988"><ele>55.89</ele><time>2010-08-25T11:11:51Z</time></trkpt><trkpt lat="51.992878" lon="-2.029053"><ele>56.37</ele><time>2010-08-25T11:12:07Z</time></trkpt><trkpt lat="51.992690" lon="-2.029145"><ele>56.86</ele><time>2010-08-25T11:12:25Z</time></trkpt><trkpt lat="51.992586" lon="-2.029174"><ele>57.34</ele><time>2010-08-25T11:12:35Z</time></trkpt><trkpt lat="51.992438" lon="-2.029231"><ele>57.34</ele><time>2010-08-25T11:12:52Z</time></trkpt><trkpt lat="51.992364" lon="-2.029279"><ele>57.82</ele><time>2010-08-25T11:13:06Z</time></trkpt><trkpt lat="51.992331" lon="-2.029289"><ele>57.34</ele><time>2010-08-25T11:13:23Z</time></trkpt><trkpt lat="51.992317" lon="-2.029276"><ele>57.34</ele><time>2010-08-25T11:13:25Z</time></trkpt><trkpt lat="51.992261" lon="-2.028997"><ele>57.34</ele><time>2010-08-25T11:13:42Z</time></trkpt><trkpt lat="51.992268" lon="-2.028937"><ele>57.34</ele><time>2010-08-25T11:13:46Z</time></trkpt><trkpt lat="51.992243" lon="-2.028645"><ele>57.34</ele><time>2010-08-25T11:14:03Z</time></trkpt><trkpt lat="51.992218" lon="-2.028306"><ele>57.82</ele><time>2010-08-25T11:14:22Z</time></trkpt><trkpt lat="51.992186" lon="-2.028006"><ele>58.30</ele><time>2010-08-25T11:14:39Z</time></trkpt><trkpt lat="51.992172" lon="-2.027673"><ele>58.78</ele><time>2010-08-25T11:14:57Z</time></trkpt><trkpt lat="51.992121" lon="-2.027319"><ele>57.82</ele><time>2010-08-25T11:15:15Z</time></trkpt><trkpt lat="51.992103" lon="-2.027051"><ele>57.34</ele><time>2010-08-25T11:15:30Z</time></trkpt><trkpt lat="51.992105" lon="-2.026747"><ele>57.34</ele><time>2010-08-25T11:15:47Z</time></trkpt><trkpt lat="51.992073" lon="-2.026646"><ele>56.86</ele><time>2010-08-25T11:15:59Z</time></trkpt><trkpt lat="51.992091" lon="-2.026370"><ele>55.89</ele><time>2010-08-25T11:16:15Z</time></trkpt><trkpt lat="51.992106" lon="-2.026047"><ele>55.89</ele><time>2010-08-25T11:16:33Z</time></trkpt><trkpt lat="51.992108" lon="-2.025868"><ele>55.41</ele><time>2010-08-25T11:16:43Z</time></trkpt><trkpt lat="51.992154" lon="-2.025564"><ele>55.41</ele><time>2010-08-25T11:17:01Z</time></trkpt><trkpt lat="51.992225" lon="-2.025263"><ele>54.45</ele><time>2010-08-25T11:17:19Z</time></trkpt><trkpt lat="51.992220" lon="-2.024982"><ele>53.01</ele><time>2010-08-25T11:17:37Z</time></trkpt><trkpt lat="51.992195" lon="-2.024607"><ele>54.93</ele><time>2010-08-25T11:17:58Z</time></trkpt><trkpt lat="51.992220" lon="-2.024295"><ele>55.41</ele><time>2010-08-25T11:18:16Z</time></trkpt><trkpt lat="51.992384" lon="-2.024127"><ele>55.89</ele><time>2010-08-25T11:18:34Z</time></trkpt><trkpt lat="51.992499" lon="-2.024079"><ele>55.41</ele><time>2010-08-25T11:18:50Z</time></trkpt><trkpt lat="51.992658" lon="-2.024017"><ele>55.89</ele><time>2010-08-25T11:19:07Z</time></trkpt><trkpt lat="51.992745" lon="-2.023941"><ele>57.34</ele><time>2010-08-25T11:19:42Z</time></trkpt><trkpt lat="51.992752" lon="-2.023932"><ele>56.37</ele><time>2010-08-25T11:19:47Z</time></trkpt><trkpt lat="51.992834" lon="-2.023637"><ele>55.89</ele><time>2010-08-25T11:20:04Z</time></trkpt><trkpt lat="51.992886" lon="-2.023323"><ele>55.41</ele><time>2010-08-25T11:20:22Z</time></trkpt><trkpt lat="51.992926" lon="-2.023123"><ele>53.97</ele><time>2010-08-25T11:20:35Z</time></trkpt><trkpt lat="51.992992" lon="-2.022836"><ele>54.45</ele><time>2010-08-25T11:20:52Z</time></trkpt><trkpt lat="51.993056" lon="-2.022581"><ele>52.53</ele><time>2010-08-25T11:21:08Z</time></trkpt><trkpt lat="51.993129" lon="-2.022309"><ele>52.05</ele><time>2010-08-25T11:21:25Z</time></trkpt><trkpt lat="51.993200" lon="-2.022040"><ele>51.57</ele><time>2010-08-25T11:21:42Z</time></trkpt><trkpt lat="51.993273" lon="-2.021822"><ele>51.09</ele><time>2010-08-25T11:21:58Z</time></trkpt><trkpt lat="51.993344" lon="-2.021531"><ele>50.61</ele><time>2010-08-25T11:22:16Z</time></trkpt><trkpt lat="51.993413" lon="-2.021248"><ele>50.61</ele><time>2010-08-25T11:22:33Z</time></trkpt><trkpt lat="51.993472" lon="-2.020974"><ele>50.13</ele><time>2010-08-25T11:22:50Z</time></trkpt><trkpt lat="51.993543" lon="-2.020753"><ele>49.65</ele><time>2010-08-25T11:23:05Z</time></trkpt><trkpt lat="51.993626" lon="-2.020590"><ele>48.68</ele><time>2010-08-25T11:23:23Z</time></trkpt><trkpt lat="51.993633" lon="-2.020593"><ele>49.16</ele><time>2010-08-25T11:23:44Z</time></trkpt><trkpt lat="51.993640" lon="-2.020529"><ele>46.76</ele><time>2010-08-25T11:23:56Z</time></trkpt><trkpt lat="51.993718" lon="-2.020272"><ele>44.36</ele><time>2010-08-25T11:24:11Z</time></trkpt><trkpt lat="51.993833" lon="-2.020051"><ele>42.92</ele><time>2010-08-25T11:24:31Z</time></trkpt><trkpt lat="51.993868" lon="-2.019908"><ele>42.92</ele><time>2010-08-25T11:24:47Z</time></trkpt><trkpt lat="51.993921" lon="-2.019811"><ele>42.92</ele><time>2010-08-25T11:24:54Z</time></trkpt><trkpt lat="51.994043" lon="-2.019652"><ele>44.84</ele><time>2010-08-25T11:25:10Z</time></trkpt><trkpt lat="51.994169" lon="-2.019520"><ele>46.76</ele><time>2010-08-25T11:25:21Z</time></trkpt><trkpt lat="51.994298" lon="-2.019423"><ele>48.20</ele><time>2010-08-25T11:25:33Z</time></trkpt><trkpt lat="51.994485" lon="-2.019217"><ele>49.65</ele><time>2010-08-25T11:25:51Z</time></trkpt><trkpt lat="51.994531" lon="-2.019103"><ele>48.20</ele><time>2010-08-25T11:26:04Z</time></trkpt><trkpt lat="51.994547" lon="-2.018961"><ele>45.32</ele><time>2010-08-25T11:26:21Z</time></trkpt><trkpt lat="51.994544" lon="-2.018943"><ele>44.84</ele><time>2010-08-25T11:26:23Z</time></trkpt><trkpt lat="51.994599" lon="-2.018893"><ele>42.92</ele><time>2010-08-25T11:26:39Z</time></trkpt><trkpt lat="51.994809" lon="-2.018855"><ele>43.88</ele><time>2010-08-25T11:26:56Z</time></trkpt><trkpt lat="51.995001" lon="-2.018693"><ele>43.88</ele><time>2010-08-25T11:27:13Z</time></trkpt><trkpt lat="51.995104" lon="-2.018584"><ele>43.40</ele><time>2010-08-25T11:27:24Z</time></trkpt><trkpt lat="51.995231" lon="-2.018359"><ele>43.40</ele><time>2010-08-25T11:27:43Z</time></trkpt><trkpt lat="51.995295" lon="-2.018280"><ele>43.40</ele><time>2010-08-25T11:27:53Z</time></trkpt><trkpt lat="51.995414" lon="-2.018103"><ele>44.36</ele><time>2010-08-25T11:28:09Z</time></trkpt><trkpt lat="51.995594" lon="-2.017887"><ele>45.32</ele><time>2010-08-25T11:28:30Z</time></trkpt><trkpt lat="51.995755" lon="-2.017669"><ele>45.80</ele><time>2010-08-25T11:28:49Z</time></trkpt><trkpt lat="51.995897" lon="-2.017476"><ele>45.80</ele><time>2010-08-25T11:29:05Z</time></trkpt><trkpt lat="51.996094" lon="-2.017298"><ele>44.36</ele><time>2010-08-25T11:29:26Z</time></trkpt><trkpt lat="51.996159" lon="-2.017206"><ele>40.99</ele><time>2010-08-25T11:29:41Z</time></trkpt><trkpt lat="51.996222" lon="-2.017186"><ele>40.51</ele><time>2010-08-25T11:29:50Z</time></trkpt><trkpt lat="51.996286" lon="-2.017138"><ele>42.44</ele><time>2010-08-25T11:30:06Z</time></trkpt><trkpt lat="51.996318" lon="-2.017117"><ele>43.40</ele><time>2010-08-25T11:30:09Z</time></trkpt><trkpt lat="51.996525" lon="-2.016942"><ele>47.72</ele><time>2010-08-25T11:30:28Z</time></trkpt><trkpt lat="51.996618" lon="-2.016837"><ele>47.24</ele><time>2010-08-25T11:30:40Z</time></trkpt><trkpt lat="51.996631" lon="-2.016794"><ele>46.76</ele><time>2010-08-25T11:30:52Z</time></trkpt><trkpt lat="51.996651" lon="-2.016790"><ele>46.76</ele><time>2010-08-25T11:31:03Z</time></trkpt><trkpt lat="51.996925" lon="-2.016611"><ele>45.80</ele><time>2010-08-25T11:31:29Z</time></trkpt><trkpt lat="51.997242" lon="-2.016378"><ele>44.84</ele><time>2010-08-25T11:32:00Z</time></trkpt><trkpt lat="51.997459" lon="-2.016255"><ele>43.88</ele><time>2010-08-25T11:32:21Z</time></trkpt><trkpt lat="51.997481" lon="-2.016216"><ele>43.40</ele><time>2010-08-25T11:32:33Z</time></trkpt><trkpt lat="51.997509" lon="-2.016237"><ele>44.84</ele><time>2010-08-25T11:32:45Z</time></trkpt><trkpt lat="51.997514" lon="-2.016236"><ele>44.84</ele><time>2010-08-25T11:32:47Z</time></trkpt><trkpt lat="51.997566" lon="-2.016161"><ele>45.80</ele><time>2010-08-25T11:32:53Z</time></trkpt><trkpt lat="51.997510" lon="-2.015894"><ele>47.24</ele><time>2010-08-25T11:33:07Z</time></trkpt><trkpt lat="51.997466" lon="-2.015730"><ele>46.28</ele><time>2010-08-25T11:33:16Z</time></trkpt><trkpt lat="51.997393" lon="-2.015541"><ele>44.36</ele><time>2010-08-25T11:33:29Z</time></trkpt><trkpt lat="51.997275" lon="-2.015273"><ele>44.36</ele><time>2010-08-25T11:33:47Z</time></trkpt><trkpt lat="51.997242" lon="-2.015176"><ele>44.84</ele><time>2010-08-25T11:33:53Z</time></trkpt><trkpt lat="51.997216" lon="-2.015116"><ele>44.84</ele><time>2010-08-25T11:33:57Z</time></trkpt><trkpt lat="51.997202" lon="-2.015052"><ele>44.84</ele><time>2010-08-25T11:34:01Z</time></trkpt><trkpt lat="51.997239" lon="-2.014890"><ele>46.28</ele><time>2010-08-25T11:34:10Z</time></trkpt><trkpt lat="51.997226" lon="-2.014828"><ele>46.76</ele><time>2010-08-25T11:34:14Z</time></trkpt><trkpt lat="51.997131" lon="-2.014514"><ele>47.24</ele><time>2010-08-25T11:34:32Z</time></trkpt><trkpt lat="51.997100" lon="-2.014468"><ele>45.32</ele><time>2010-08-25T11:34:37Z</time></trkpt></trkseg></trk></gpx>